This is the latest recevied weather packets stored in our database for station/object EA6MW-10. If no packets are shown the sender has not sent any weather packets the latest 10 day(s).
| Time | Temp. | Humidity | Pressure | Rain* | Wind** | Luminosity | Snow |
|---|---|---|---|---|---|---|---|
| 1777651648 | 18.33° C | 80% | 1021.7 hPa | - | - | - | - |
| 1777650747 | 18.89° C | 78% | 1021.6 hPa | - | - | - | - |
| 1777649847 | 19.44° C | 73% | 1021.6 hPa | - | - | - | - |
| 1777648947 | 20° C | 71% | 1021.4 hPa | - | - | - | - |
| 1777648047 | 19.44° C | 72% | 1021.4 hPa | - | - | - | - |
| 1777647147 | 19.44° C | 72% | 1021.2 hPa | - | - | - | - |
| 1777646246 | 19.44° C | 72% | 1021.2 hPa | - | - | - | - |
| 1777645346 | 18.89° C | 75% | 1021.1 hPa | - | - | - | - |
| 1777644446 | 19.44° C | 71% | 1021.3 hPa | - | - | - | - |
| 1777643546 | 19.44° C | 72% | 1021.3 hPa | - | - | - | - |
| 1777642645 | 20° C | 69% | 1021.3 hPa | - | - | - | - |
| 1777641745 | 21.11° C | 66% | 1021.2 hPa | - | - | - | - |
| 1777640845 | 21.11° C | 66% | 1021 hPa | - | - | - | - |
| 1777639945 | 21.67° C | 64% | 1021 hPa | - | - | - | - |
| 1777639044 | 22.22° C | 63% | 1021 hPa | - | - | - | - |
| 1777638144 | 21.67° C | 62% | 1021 hPa | - | - | - | - |
| 1777637244 | 22.22° C | 60% | 1020.9 hPa | - | - | - | - |
| 1777636344 | 24.44° C | 54% | 1020.9 hPa | - | - | - | - |
| 1777635443 | 23.89° C | 56% | 1020.9 hPa | - | - | - | - |
| 1777634543 | 23.89° C | 55% | 1020.8 hPa | - | - | - | - |
| 1777633643 | 23.33° C | 56% | 1020.9 hPa | - | - | - | - |
| 1777632743 | 23.89° C | 54% | 1020.8 hPa | - | - | - | - |
| 1777631842 | 23.89° C | 55% | 1020.9 hPa | - | - | - | - |
| 1777630942 | 25° C | 52% | 1021 hPa | - | - | - | - |
| 1777630042 | 23.33° C | 58% | 1020.9 hPa | - | - | - | - |
* Rain since midnight (hover to see other rain measurements)
** Current wind speed in m/s (hover to see current wind gust speed)